Kingston, Ohio
Current Conditions -  °F | °C
As of 2:14 PM on Friday 28 Nov 2014 (Local Time) from KRZT Reporting Station
Overcast Overcast  
Wind Chill: 26°   Ceiling: 7500
Heat Index: 32°   Visibility: 10mi
Dew Point: 18°   Wind: 7mph
Humidity: 55%   Direction: 190°S
Pressure: 30.28"   Gusts: NA
Location:  39.47°N, 82.91°W
Report Text: KRZT 281914Z AUTO 19006KT 10SM SCT065 BKN075 OVC100 00/M08 A3028 RMK AO2
Loading
Personal Weather Stations






























Interactive Weather Map New forecast layout! Learn more

10-Day Weather Forecast

Advertisements
Track Severe Weather on mobile